Accueil
METAR-TAF:

METAR-TAF

Aéroports :

Aérodrome de Foggia

Foggia, Italie

latitude: 41-25-58N, longitude: 015-32-06E, altitude: 81 m

Observation

Le bulletin a été fait il y a 1 heure et 7 minutes, à 13:50 UTC
Vent 5 kt de nord/nord-ouest
Température 20°C
Humidité 21%
Pression 1020 hPa
Visibilité 10 km ou plus
pas de nuages en-dessous de 1500 mètres et pas de cumulonimbus.

METAR: LIBF 091350Z 33005KT CAVOK 20/M03 Q1020

Heure: 16:57 (14:57 UTC)


TAF: absent

Observations et prévisions météorologiques de plus de 4000 aéroports (messages METAR et TAF).

Les stations disponibles sont représentées par des disques jaunes et rouges sur la carte.

Passer la souris dessus pour voir le nom de la station.

Cliquer dessus pour voir les observations et prévisions météorologiques.

Pour changer de carte: cliquez sur les boutons verts avec une croix noire pour zoomer, sur le bouton vert avec un tiret pour effectuer un zoom arrière, ou sur les flèches vertes pour les cartes adjacentes.


METAR-TAF: